sensor_id;sensor_type;location;lat;lon;timestamp;pressure;altitude;pressure_sealevel;temperature;humidity
69198;BME280;56311;50.298;8.514;2023-08-06T00:00:00;96850.0;;;15.9;100.0
69198;BME280;56311;50.298;8.514;2023-08-06T00:02:00;96860.0;;;15.9;100.0
69198;BME280;56311;50.298;8.514;2023-08-06T00:04:01;96860.0;;;15.8;100.0
69198;BME280;56311;50.298;8.514;2023-08-06T00:06:00;96860.0;;;15.6;100.0
69198;BME280;56311;50.298;8.514;2023-08-06T00:08:00;96860.0;;;15.7;100.0
69198;BME280;56311;50.298;8.514;2023-08-06T00:10:00;96860.0;;;15.7;100.0
69198;BME280;56311;50.298;8.514;2023-08-06T00:12:01;96860.0;;;15.7;100.0
69198;BME280;56311;50.298;8.514;2023-08-06T00:14:00;96850.0;;;15.6;100.0
69198;BME280;56311;50.298;8.514;2023-08-06T00:16:09;96850.0;;;15.6;100.0
69198;BME280;56311;50.298;8.514;2023-08-06T00:18:00;96850.0;;;15.7;100.0
69198;BME280;56311;50.298;8.514;2023-08-06T00:20:00;96850.0;;;15.7;100.0
69198;BME280;56311;50.298;8.514;2023-08-06T00:22:00;96850.0;;;15.6;100.0
69198;BME280;56311;50.298;8.514;2023-08-06T00:24:00;96850.0;;;15.6;100.0
69198;BME280;56311;50.298;8.514;2023-08-06T00:26:00;96850.0;;;15.6;100.0
69198;BME280;56311;50.298;8.514;2023-08-06T00:28:00;96850.0;;;15.7;100.0
69198;BME280;56311;50.298;8.514;2023-08-06T00:30:00;96840.0;;;15.7;100.0
69198;BME280;56311;50.298;8.514;2023-08-06T00:32:00;96840.0;;;15.7;100.0
69198;BME280;56311;50.298;8.514;2023-08-06T00:34:00;96840.0;;;15.7;100.0
69198;BME280;56311;50.298;8.514;2023-08-06T00:36:00;96830.0;;;15.8;100.0
69198;BME280;56311;50.298;8.514;2023-08-06T00:38:00;96830.0;;;15.7;100.0
69198;BME280;56311;50.298;8.514;2023-08-06T00:40:01;96830.0;;;15.7;100.0
69198;BME280;56311;50.298;8.514;2023-08-06T00:42:01;96830.0;;;15.8;100.0
69198;BME280;56311;50.298;8.514;2023-08-06T00:44:00;96820.0;;;15.7;100.0
69198;BME280;56311;50.298;8.514;2023-08-06T00:46:00;96820.0;;;15.6;100.0
69198;BME280;56311;50.298;8.514;2023-08-06T00:48:00;96810.0;;;15.7;100.0
69198;BME280;56311;50.298;8.514;2023-08-06T00:50:00;96810.0;;;15.7;100.0
69198;BME280;56311;50.298;8.514;2023-08-06T00:52:01;96810.0;;;15.7;100.0
69198;BME280;56311;50.298;8.514;2023-08-06T00:54:00;96800.0;;;15.6;100.0
69198;BME280;56311;50.298;8.514;2023-08-06T00:56:00;96800.0;;;15.6;100.0
69198;BME280;56311;50.298;8.514;2023-08-06T00:58:01;96800.0;;;15.5;100.0
69198;BME280;56311;50.298;8.514;2023-08-06T01:00:00;96800.0;;;15.5;100.0
69198;BME280;56311;50.298;8.514;2023-08-06T01:02:00;96800.0;;;15.6;100.0
69198;BME280;56311;50.298;8.514;2023-08-06T01:04:01;96790.0;;;15.6;100.0
69198;BME280;56311;50.298;8.514;2023-08-06T01:06:01;96790.0;;;15.7;100.0
69198;BME280;56311;50.298;8.514;2023-08-06T01:08:07;96790.0;;;15.6;100.0
69198;BME280;56311;50.298;8.514;2023-08-06T01:10:15;96790.0;;;15.6;100.0
69198;BME280;56311;50.298;8.514;2023-08-06T01:12:06;96790.0;;;15.6;100.0
69198;BME280;56311;50.298;8.514;2023-08-06T01:14:07;96780.0;;;15.6;100.0
69198;BME280;56311;50.298;8.514;2023-08-06T01:16:01;96780.0;;;15.7;100.0
69198;BME280;56311;50.298;8.514;2023-08-06T01:18:00;96780.0;;;15.6;100.0
69198;BME280;56311;50.298;8.514;2023-08-06T01:20:00;96780.0;;;15.6;100.0
69198;BME280;56311;50.298;8.514;2023-08-06T01:22:00;96780.0;;;15.6;100.0
69198;BME280;56311;50.298;8.514;2023-08-06T01:24:00;96780.0;;;15.6;100.0
69198;BME280;56311;50.298;8.514;2023-08-06T01:26:10;96770.0;;;15.6;100.0
69198;BME280;56311;50.298;8.514;2023-08-06T01:28:05;96780.0;;;15.6;100.0
69198;BME280;56311;50.298;8.514;2023-08-06T01:30:03;96780.0;;;15.7;100.0
69198;BME280;56311;50.298;8.514;2023-08-06T01:32:01;96780.0;;;15.6;100.0
69198;BME280;56311;50.298;8.514;2023-08-06T01:34:01;96780.0;;;15.6;100.0
69198;BME280;56311;50.298;8.514;2023-08-06T01:36:01;96770.0;;;15.6;100.0
69198;BME280;56311;50.298;8.514;2023-08-06T01:38:01;96770.0;;;15.6;100.0
69198;BME280;56311;50.298;8.514;2023-08-06T01:40:00;96770.0;;;15.6;100.0
69198;BME280;56311;50.298;8.514;2023-08-06T01:42:00;96760.0;;;15.6;100.0
69198;BME280;56311;50.298;8.514;2023-08-06T01:44:00;96760.0;;;15.6;100.0
69198;BME280;56311;50.298;8.514;2023-08-06T01:46:00;96750.0;;;15.6;100.0
69198;BME280;56311;50.298;8.514;2023-08-06T01:48:00;96750.0;;;15.6;100.0
69198;BME280;56311;50.298;8.514;2023-08-06T01:50:00;96750.0;;;15.7;100.0
69198;BME280;56311;50.298;8.514;2023-08-06T01:52:00;96750.0;;;15.6;100.0
69198;BME280;56311;50.298;8.514;2023-08-06T01:54:00;96750.0;;;15.6;100.0
69198;BME280;56311;50.298;8.514;2023-08-06T01:56:00;96740.0;;;15.6;100.0
69198;BME280;56311;50.298;8.514;2023-08-06T01:58:00;96740.0;;;15.6;100.0
69198;BME280;56311;50.298;8.514;2023-08-06T02:00:02;96750.0;;;15.6;100.0
69198;BME280;56311;50.298;8.514;2023-08-06T02:02:00;96740.0;;;15.7;100.0
69198;BME280;56311;50.298;8.514;2023-08-06T02:04:01;96750.0;;;15.5;100.0
69198;BME280;56311;50.298;8.514;2023-08-06T02:06:00;96740.0;;;15.5;100.0
69198;BME280;56311;50.298;8.514;2023-08-06T02:08:00;96740.0;;;15.6;100.0
69198;BME280;56311;50.298;8.514;2023-08-06T02:10:00;96740.0;;;15.6;100.0
69198;BME280;56311;50.298;8.514;2023-08-06T02:12:00;96740.0;;;15.6;100.0
69198;BME280;56311;50.298;8.514;2023-08-06T02:14:00;96740.0;;;15.7;100.0
69198;BME280;56311;50.298;8.514;2023-08-06T02:16:01;96730.0;;;15.7;100.0
69198;BME280;56311;50.298;8.514;2023-08-06T02:18:00;96720.0;;;15.7;100.0
69198;BME280;56311;50.298;8.514;2023-08-06T02:20:00;96720.0;;;15.7;100.0
69198;BME280;56311;50.298;8.514;2023-08-06T02:22:00;96720.0;;;15.7;100.0
69198;BME280;56311;50.298;8.514;2023-08-06T02:24:00;96720.0;;;15.6;100.0
69198;BME280;56311;50.298;8.514;2023-08-06T02:26:01;96720.0;;;15.6;100.0
69198;BME280;56311;50.298;8.514;2023-08-06T02:28:01;96720.0;;;15.5;100.0
69198;BME280;56311;50.298;8.514;2023-08-06T02:30:00;96710.0;;;15.6;100.0
69198;BME280;56311;50.298;8.514;2023-08-06T02:32:00;96710.0;;;15.6;100.0
69198;BME280;56311;50.298;8.514;2023-08-06T02:34:01;96710.0;;;15.5;100.0
69198;BME280;56311;50.298;8.514;2023-08-06T02:36:01;96710.0;;;15.4;100.0
69198;BME280;56311;50.298;8.514;2023-08-06T02:38:00;96710.0;;;15.4;100.0
69198;BME280;56311;50.298;8.514;2023-08-06T02:40:00;96700.0;;;15.4;100.0
69198;BME280;56311;50.298;8.514;2023-08-06T02:42:00;96700.0;;;15.3;100.0
69198;BME280;56311;50.298;8.514;2023-08-06T02:44:00;96700.0;;;15.3;100.0
69198;BME280;56311;50.298;8.514;2023-08-06T02:46:01;96690.0;;;15.4;100.0
69198;BME280;56311;50.298;8.514;2023-08-06T02:48:00;96690.0;;;15.4;100.0
69198;BME280;56311;50.298;8.514;2023-08-06T02:50:00;96690.0;;;15.4;100.0
69198;BME280;56311;50.298;8.514;2023-08-06T02:52:00;96680.0;;;15.4;100.0
69198;BME280;56311;50.298;8.514;2023-08-06T02:54:00;96680.0;;;15.4;100.0
69198;BME280;56311;50.298;8.514;2023-08-06T02:56:00;96690.0;;;15.4;100.0
69198;BME280;56311;50.298;8.514;2023-08-06T02:58:00;96680.0;;;15.5;100.0
69198;BME280;56311;50.298;8.514;2023-08-06T03:00:00;96670.0;;;15.6;100.0
69198;BME280;56311;50.298;8.514;2023-08-06T03:02:00;96660.0;;;15.6;100.0
69198;BME280;56311;50.298;8.514;2023-08-06T03:04:00;96670.0;;;15.6;100.0
69198;BME280;56311;50.298;8.514;2023-08-06T03:06:00;96670.0;;;15.5;100.0
69198;BME280;56311;50.298;8.514;2023-08-06T03:08:00;96670.0;;;15.4;100.0
69198;BME280;56311;50.298;8.514;2023-08-06T03:10:00;96670.0;;;15.3;100.0
69198;BME280;56311;50.298;8.514;2023-08-06T03:12:00;96670.0;;;15.1;100.0
69198;BME280;56311;50.298;8.514;2023-08-06T03:14:00;96670.0;;;15.1;100.0
69198;BME280;56311;50.298;8.514;2023-08-06T03:16:00;96660.0;;;15.2;100.0
69198;BME280;56311;50.298;8.514;2023-08-06T03:18:00;96660.0;;;15.1;100.0
69198;BME280;56311;50.298;8.514;2023-08-06T03:20:00;96660.0;;;15.2;100.0
69198;BME280;56311;50.298;8.514;2023-08-06T03:22:00;96660.0;;;15.1;100.0
69198;BME280;56311;50.298;8.514;2023-08-06T03:24:00;96660.0;;;15.1;100.0
69198;BME280;56311;50.298;8.514;2023-08-06T03:26:01;96660.0;;;15.1;100.0
69198;BME280;56311;50.298;8.514;2023-08-06T03:28:00;96650.0;;;15.1;100.0
69198;BME280;56311;50.298;8.514;2023-08-06T03:30:00;96650.0;;;15.2;100.0
69198;BME280;56311;50.298;8.514;2023-08-06T03:32:00;96650.0;;;15.2;100.0
69198;BME280;56311;50.298;8.514;2023-08-06T03:34:00;96640.0;;;15.2;100.0
69198;BME280;56311;50.298;8.514;2023-08-06T03:36:00;96640.0;;;15.3;100.0
69198;BME280;56311;50.298;8.514;2023-08-06T03:38:00;96650.0;;;15.2;100.0
69198;BME280;56311;50.298;8.514;2023-08-06T03:40:00;96650.0;;;15.2;100.0
69198;BME280;56311;50.298;8.514;2023-08-06T03:42:01;96650.0;;;15.1;100.0
69198;BME280;56311;50.298;8.514;2023-08-06T03:44:01;96650.0;;;15.1;100.0
69198;BME280;56311;50.298;8.514;2023-08-06T03:46:00;96650.0;;;15.1;100.0
69198;BME280;56311;50.298;8.514;2023-08-06T03:48:00;96640.0;;;15.1;100.0
69198;BME280;56311;50.298;8.514;2023-08-06T03:50:00;96640.0;;;15.2;100.0
69198;BME280;56311;50.298;8.514;2023-08-06T03:52:01;96640.0;;;15.2;100.0
69198;BME280;56311;50.298;8.514;2023-08-06T03:54:00;96640.0;;;15.3;100.0
69198;BME280;56311;50.298;8.514;2023-08-06T03:56:00;96630.0;;;15.3;100.0
69198;BME280;56311;50.298;8.514;2023-08-06T03:58:00;96630.0;;;15.3;100.0
69198;BME280;56311;50.298;8.514;2023-08-06T04:00:00;96630.0;;;15.2;100.0
69198;BME280;56311;50.298;8.514;2023-08-06T04:02:00;96630.0;;;15.1;100.0
69198;BME280;56311;50.298;8.514;2023-08-06T04:04:01;96630.0;;;15.3;100.0
69198;BME280;56311;50.298;8.514;2023-08-06T04:06:01;96630.0;;;15.3;100.0
69198;BME280;56311;50.298;8.514;2023-08-06T04:08:00;96630.0;;;15.2;100.0
69198;BME280;56311;50.298;8.514;2023-08-06T04:10:03;96630.0;;;15.2;100.0
69198;BME280;56311;50.298;8.514;2023-08-06T04:12:00;96630.0;;;15.2;100.0
69198;BME280;56311;50.298;8.514;2023-08-06T04:14:00;96630.0;;;15.2;100.0
69198;BME280;56311;50.298;8.514;2023-08-06T04:16:01;96630.0;;;15.2;100.0
69198;BME280;56311;50.298;8.514;2023-08-06T04:18:00;96620.0;;;15.2;100.0
69198;BME280;56311;50.298;8.514;2023-08-06T04:20:00;96630.0;;;15.3;100.0
69198;BME280;56311;50.298;8.514;2023-08-06T04:22:00;96630.0;;;15.3;100.0
69198;BME280;56311;50.298;8.514;2023-08-06T04:24:00;96620.0;;;15.3;100.0
69198;BME280;56311;50.298;8.514;2023-08-06T04:26:00;96620.0;;;15.2;100.0
69198;BME280;56311;50.298;8.514;2023-08-06T04:28:01;96610.0;;;15.2;100.0
69198;BME280;56311;50.298;8.514;2023-08-06T04:30:00;96610.0;;;15.4;100.0
69198;BME280;56311;50.298;8.514;2023-08-06T04:32:00;96610.0;;;15.3;100.0
69198;BME280;56311;50.298;8.514;2023-08-06T04:34:00;96600.0;;;15.3;100.0
69198;BME280;56311;50.298;8.514;2023-08-06T04:36:00;96610.0;;;15.4;100.0
69198;BME280;56311;50.298;8.514;2023-08-06T04:38:00;96610.0;;;15.4;100.0
69198;BME280;56311;50.298;8.514;2023-08-06T04:40:00;96610.0;;;15.5;100.0
69198;BME280;56311;50.298;8.514;2023-08-06T04:42:00;96610.0;;;15.5;100.0
69198;BME280;56311;50.298;8.514;2023-08-06T04:44:00;96610.0;;;15.5;100.0
69198;BME280;56311;50.298;8.514;2023-08-06T04:46:00;96610.0;;;15.4;100.0
69198;BME280;56311;50.298;8.514;2023-08-06T04:48:00;96610.0;;;15.4;100.0
69198;BME280;56311;50.298;8.514;2023-08-06T04:50:00;96620.0;;;15.4;100.0
69198;BME280;56311;50.298;8.514;2023-08-06T04:52:01;96610.0;;;15.6;100.0
69198;BME280;56311;50.298;8.514;2023-08-06T04:54:00;96610.0;;;15.6;100.0
69198;BME280;56311;50.298;8.514;2023-08-06T04:56:00;96610.0;;;15.7;100.0
69198;BME280;56311;50.298;8.514;2023-08-06T04:58:00;96610.0;;;15.8;100.0
69198;BME280;56311;50.298;8.514;2023-08-06T05:00:00;96610.0;;;15.8;100.0
69198;BME280;56311;50.298;8.514;2023-08-06T05:02:00;96610.0;;;15.9;100.0
69198;BME280;56311;50.298;8.514;2023-08-06T05:04:00;96610.0;;;16.0;100.0
69198;BME280;56311;50.298;8.514;2023-08-06T05:06:00;96610.0;;;15.8;100.0
69198;BME280;56311;50.298;8.514;2023-08-06T05:08:00;96610.0;;;15.8;100.0
69198;BME280;56311;50.298;8.514;2023-08-06T05:10:00;96610.0;;;15.9;100.0
69198;BME280;56311;50.298;8.514;2023-08-06T05:12:01;96610.0;;;15.9;100.0
69198;BME280;56311;50.298;8.514;2023-08-06T05:14:00;96610.0;;;16.0;100.0
69198;BME280;56311;50.298;8.514;2023-08-06T05:16:00;96610.0;;;16.0;100.0
69198;BME280;56311;50.298;8.514;2023-08-06T05:18:00;96610.0;;;15.8;100.0
69198;BME280;56311;50.298;8.514;2023-08-06T05:20:00;96600.0;;;15.7;100.0
69198;BME280;56311;50.298;8.514;2023-08-06T05:22:00;96610.0;;;15.9;100.0
69198;BME280;56311;50.298;8.514;2023-08-06T05:24:01;96600.0;;;15.9;100.0
69198;BME280;56311;50.298;8.514;2023-08-06T05:26:00;96600.0;;;15.7;100.0
69198;BME280;56311;50.298;8.514;2023-08-06T05:28:01;96610.0;;;15.9;100.0
69198;BME280;56311;50.298;8.514;2023-08-06T05:30:00;96610.0;;;15.6;100.0
69198;BME280;56311;50.298;8.514;2023-08-06T05:32:00;96610.0;;;15.5;100.0
69198;BME280;56311;50.298;8.514;2023-08-06T05:34:00;96610.0;;;15.6;100.0
69198;BME280;56311;50.298;8.514;2023-08-06T05:36:00;96610.0;;;15.8;100.0
69198;BME280;56311;50.298;8.514;2023-08-06T05:38:00;96620.0;;;16.0;100.0
69198;BME280;56311;50.298;8.514;2023-08-06T05:40:00;96610.0;;;15.8;100.0
69198;BME280;56311;50.298;8.514;2023-08-06T05:42:00;96610.0;;;15.8;100.0
69198;BME280;56311;50.298;8.514;2023-08-06T05:44:00;96610.0;;;15.9;100.0
69198;BME280;56311;50.298;8.514;2023-08-06T05:46:00;96620.0;;;16.1;100.0
69198;BME280;56311;50.298;8.514;2023-08-06T05:48:00;96620.0;;;16.0;100.0
69198;BME280;56311;50.298;8.514;2023-08-06T05:50:00;96620.0;;;16.0;100.0
69198;BME280;56311;50.298;8.514;2023-08-06T05:52:00;96620.0;;;16.1;100.0
69198;BME280;56311;50.298;8.514;2023-08-06T05:54:00;96620.0;;;16.2;100.0
69198;BME280;56311;50.298;8.514;2023-08-06T05:56:00;96620.0;;;16.0;100.0
69198;BME280;56311;50.298;8.514;2023-08-06T05:58:00;96620.0;;;16.0;100.0
69198;BME280;56311;50.298;8.514;2023-08-06T06:00:00;96630.0;;;16.2;100.0
69198;BME280;56311;50.298;8.514;2023-08-06T06:02:00;96620.0;;;16.3;100.0
69198;BME280;56311;50.298;8.514;2023-08-06T06:04:01;96630.0;;;16.2;100.0
69198;BME280;56311;50.298;8.514;2023-08-06T06:06:01;96630.0;;;16.3;100.0
69198;BME280;56311;50.298;8.514;2023-08-06T06:08:00;96620.0;;;16.3;100.0
69198;BME280;56311;50.298;8.514;2023-08-06T06:10:00;96630.0;;;16.3;100.0
69198;BME280;56311;50.298;8.514;2023-08-06T06:12:00;96630.0;;;16.2;100.0
69198;BME280;56311;50.298;8.514;2023-08-06T06:14:00;96630.0;;;16.2;100.0
69198;BME280;56311;50.298;8.514;2023-08-06T06:16:00;96630.0;;;16.2;100.0
69198;BME280;56311;50.298;8.514;2023-08-06T06:18:00;96630.0;;;16.3;100.0
69198;BME280;56311;50.298;8.514;2023-08-06T06:20:00;96630.0;;;16.4;100.0
69198;BME280;56311;50.298;8.514;2023-08-06T06:22:01;96620.0;;;16.0;100.0
69198;BME280;56311;50.298;8.514;2023-08-06T06:24:00;96620.0;;;16.0;100.0
69198;BME280;56311;50.298;8.514;2023-08-06T06:26:00;96620.0;;;15.9;100.0
69198;BME280;56311;50.298;8.514;2023-08-06T06:28:00;96630.0;;;16.1;100.0
69198;BME280;56311;50.298;8.514;2023-08-06T06:30:00;96630.0;;;16.1;100.0
69198;BME280;56311;50.298;8.514;2023-08-06T06:32:00;96630.0;;;16.2;100.0
69198;BME280;56311;50.298;8.514;2023-08-06T06:34:00;96630.0;;;16.4;100.0
69198;BME280;56311;50.298;8.514;2023-08-06T06:36:00;96630.0;;;16.4;100.0
69198;BME280;56311;50.298;8.514;2023-08-06T06:38:00;96630.0;;;16.3;100.0
69198;BME280;56311;50.298;8.514;2023-08-06T06:40:00;96630.0;;;16.2;100.0
69198;BME280;56311;50.298;8.514;2023-08-06T06:42:00;96630.0;;;16.3;100.0
69198;BME280;56311;50.298;8.514;2023-08-06T06:44:00;96630.0;;;16.3;100.0
69198;BME280;56311;50.298;8.514;2023-08-06T06:46:00;96630.0;;;16.4;100.0
69198;BME280;56311;50.298;8.514;2023-08-06T06:48:00;96620.0;;;16.5;100.0
69198;BME280;56311;50.298;8.514;2023-08-06T06:50:00;96620.0;;;16.6;100.0
69198;BME280;56311;50.298;8.514;2023-08-06T06:52:00;96620.0;;;16.7;100.0
69198;BME280;56311;50.298;8.514;2023-08-06T06:54:00;96620.0;;;16.7;100.0
69198;BME280;56311;50.298;8.514;2023-08-06T06:56:02;96620.0;;;16.8;100.0
69198;BME280;56311;50.298;8.514;2023-08-06T06:58:00;96620.0;;;16.8;100.0
69198;BME280;56311;50.298;8.514;2023-08-06T07:00:00;96620.0;;;16.7;100.0
69198;BME280;56311;50.298;8.514;2023-08-06T07:02:00;96620.0;;;16.7;100.0
69198;BME280;56311;50.298;8.514;2023-08-06T07:04:00;96620.0;;;16.7;100.0
69198;BME280;56311;50.298;8.514;2023-08-06T07:06:00;96620.0;;;16.7;100.0
69198;BME280;56311;50.298;8.514;2023-08-06T07:08:00;96620.0;;;16.6;100.0
69198;BME280;56311;50.298;8.514;2023-08-06T07:10:00;96620.0;;;16.4;100.0
69198;BME280;56311;50.298;8.514;2023-08-06T07:12:00;96620.0;;;16.4;100.0
69198;BME280;56311;50.298;8.514;2023-08-06T07:14:01;96630.0;;;16.4;100.0
69198;BME280;56311;50.298;8.514;2023-08-06T07:16:01;96620.0;;;16.3;100.0
69198;BME280;56311;50.298;8.514;2023-08-06T07:18:00;96620.0;;;16.2;100.0
69198;BME280;56311;50.298;8.514;2023-08-06T07:20:00;96620.0;;;16.2;100.0
69198;BME280;56311;50.298;8.514;2023-08-06T07:22:00;96620.0;;;16.2;100.0
69198;BME280;56311;50.298;8.514;2023-08-06T07:24:00;96630.0;;;16.2;100.0
69198;BME280;56311;50.298;8.514;2023-08-06T07:26:00;96620.0;;;16.1;100.0
69198;BME280;56311;50.298;8.514;2023-08-06T07:28:00;96620.0;;;16.1;100.0
69198;BME280;56311;50.298;8.514;2023-08-06T07:30:00;96620.0;;;16.3;100.0
69198;BME280;56311;50.298;8.514;2023-08-06T07:32:00;96620.0;;;16.4;100.0
69198;BME280;56311;50.298;8.514;2023-08-06T07:34:00;96630.0;;;16.5;100.0
69198;BME280;56311;50.298;8.514;2023-08-06T07:36:07;96630.0;;;16.5;100.0
69198;BME280;56311;50.298;8.514;2023-08-06T07:38:01;96630.0;;;16.5;100.0
69198;BME280;56311;50.298;8.514;2023-08-06T07:40:00;96630.0;;;16.4;100.0
69198;BME280;56311;50.298;8.514;2023-08-06T07:42:00;96630.0;;;16.2;100.0
69198;BME280;56311;50.298;8.514;2023-08-06T07:44:00;96630.0;;;16.3;100.0
69198;BME280;56311;50.298;8.514;2023-08-06T07:46:00;96630.0;;;16.4;100.0
69198;BME280;56311;50.298;8.514;2023-08-06T07:48:00;96630.0;;;16.2;100.0
69198;BME280;56311;50.298;8.514;2023-08-06T07:50:00;96630.0;;;16.1;100.0
69198;BME280;56311;50.298;8.514;2023-08-06T07:52:00;96620.0;;;16.4;100.0
69198;BME280;56311;50.298;8.514;2023-08-06T07:54:00;96630.0;;;16.4;100.0
69198;BME280;56311;50.298;8.514;2023-08-06T07:56:00;96630.0;;;16.2;100.0
69198;BME280;56311;50.298;8.514;2023-08-06T07:58:00;96620.0;;;16.0;100.0
69198;BME280;56311;50.298;8.514;2023-08-06T08:00:00;96630.0;;;16.0;100.0
69198;BME280;56311;50.298;8.514;2023-08-06T08:02:00;96620.0;;;15.9;100.0
69198;BME280;56311;50.298;8.514;2023-08-06T08:04:00;96620.0;;;16.1;100.0
69198;BME280;56311;50.298;8.514;2023-08-06T08:06:00;96620.0;;;16.0;100.0
69198;BME280;56311;50.298;8.514;2023-08-06T08:08:00;96630.0;;;16.0;100.0
69198;BME280;56311;50.298;8.514;2023-08-06T08:10:00;96620.0;;;16.0;100.0
69198;BME280;56311;50.298;8.514;2023-08-06T08:12:00;96620.0;;;16.0;100.0
69198;BME280;56311;50.298;8.514;2023-08-06T08:14:00;96630.0;;;16.2;100.0
69198;BME280;56311;50.298;8.514;2023-08-06T08:16:01;96630.0;;;16.1;100.0
69198;BME280;56311;50.298;8.514;2023-08-06T08:18:01;96620.0;;;15.9;100.0
69198;BME280;56311;50.298;8.514;2023-08-06T08:20:00;96620.0;;;15.9;100.0
69198;BME280;56311;50.298;8.514;2023-08-06T08:22:00;96620.0;;;15.9;100.0
69198;BME280;56311;50.298;8.514;2023-08-06T08:24:00;96630.0;;;16.0;100.0
69198;BME280;56311;50.298;8.514;2023-08-06T08:26:00;96620.0;;;16.1;100.0
69198;BME280;56311;50.298;8.514;2023-08-06T08:28:01;96620.0;;;16.1;100.0
69198;BME280;56311;50.298;8.514;2023-08-06T08:30:01;96620.0;;;16.2;100.0
69198;BME280;56311;50.298;8.514;2023-08-06T08:32:00;96620.0;;;16.2;100.0
69198;BME280;56311;50.298;8.514;2023-08-06T08:34:00;96620.0;;;16.5;100.0
69198;BME280;56311;50.298;8.514;2023-08-06T08:36:00;96620.0;;;16.6;100.0
69198;BME280;56311;50.298;8.514;2023-08-06T08:38:00;96620.0;;;16.7;100.0
69198;BME280;56311;50.298;8.514;2023-08-06T08:40:01;96620.0;;;17.0;100.0
69198;BME280;56311;50.298;8.514;2023-08-06T08:42:00;96610.0;;;16.9;100.0
69198;BME280;56311;50.298;8.514;2023-08-06T08:44:00;96610.0;;;16.8;100.0
69198;BME280;56311;50.298;8.514;2023-08-06T08:46:01;96610.0;;;16.7;97.9
69198;BME280;56311;50.298;8.514;2023-08-06T08:48:00;96610.0;;;16.7;99.9
69198;BME280;56311;50.298;8.514;2023-08-06T08:50:00;96610.0;;;16.9;100.0
69198;BME280;56311;50.298;8.514;2023-08-06T08:52:02;96610.0;;;17.0;100.0
69198;BME280;56311;50.298;8.514;2023-08-06T08:54:01;96620.0;;;17.0;100.0
69198;BME280;56311;50.298;8.514;2023-08-06T08:56:00;96610.0;;;17.1;97.3
69198;BME280;56311;50.298;8.514;2023-08-06T08:58:00;96620.0;;;17.1;97.0
69198;BME280;56311;50.298;8.514;2023-08-06T09:00:00;96620.0;;;17.1;96.2
69198;BME280;56311;50.298;8.514;2023-08-06T09:02:00;96620.0;;;17.2;96.3
69198;BME280;56311;50.298;8.514;2023-08-06T09:04:00;96620.0;;;17.3;97.2
69198;BME280;56311;50.298;8.514;2023-08-06T09:06:02;96610.0;;;17.5;96.7
69198;BME280;56311;50.298;8.514;2023-08-06T09:08:03;96610.0;;;17.5;93.6
69198;BME280;56311;50.298;8.514;2023-08-06T09:10:01;96610.0;;;17.6;95.4
69198;BME280;56311;50.298;8.514;2023-08-06T09:12:02;96610.0;;;17.5;96.3
69198;BME280;56311;50.298;8.514;2023-08-06T09:14:01;96620.0;;;17.7;94.1
69198;BME280;56311;50.298;8.514;2023-08-06T09:16:01;96620.0;;;18.0;92.9
69198;BME280;56311;50.298;8.514;2023-08-06T09:18:09;96620.0;;;18.0;95.9
69198;BME280;56311;50.298;8.514;2023-08-06T09:20:09;96620.0;;;18.2;91.6
69198;BME280;56311;50.298;8.514;2023-08-06T09:22:00;96620.0;;;18.3;91.1
69198;BME280;56311;50.298;8.514;2023-08-06T09:24:00;96610.0;;;18.5;88.7
69198;BME280;56311;50.298;8.514;2023-08-06T09:26:00;96610.0;;;18.6;86.3
69198;BME280;56311;50.298;8.514;2023-08-06T09:28:02;96610.0;;;18.9;87.7
69198;BME280;56311;50.298;8.514;2023-08-06T09:30:00;96610.0;;;18.2;83.7
69198;BME280;56311;50.298;8.514;2023-08-06T09:32:00;96610.0;;;18.1;87.0
69198;BME280;56311;50.298;8.514;2023-08-06T09:34:00;96610.0;;;18.4;86.2
69198;BME280;56311;50.298;8.514;2023-08-06T09:36:07;96620.0;;;18.6;86.8
69198;BME280;56311;50.298;8.514;2023-08-06T09:38:06;96620.0;;;18.7;85.6
69198;BME280;56311;50.298;8.514;2023-08-06T09:40:00;96610.0;;;19.1;83.7
69198;BME280;56311;50.298;8.514;2023-08-06T09:42:01;96610.0;;;19.4;81.8
69198;BME280;56311;50.298;8.514;2023-08-06T09:44:00;96610.0;;;19.7;80.1
69198;BME280;56311;50.298;8.514;2023-08-06T09:46:00;96610.0;;;19.9;82.7
69198;BME280;56311;50.298;8.514;2023-08-06T09:48:03;96610.0;;;19.3;78.1
69198;BME280;56311;50.298;8.514;2023-08-06T09:50:00;96610.0;;;18.7;80.4
69198;BME280;56311;50.298;8.514;2023-08-06T09:52:01;96620.0;;;18.4;87.0
69198;BME280;56311;50.298;8.514;2023-08-06T09:54:01;96620.0;;;18.2;90.1
69198;BME280;56311;50.298;8.514;2023-08-06T09:56:00;96620.0;;;18.2;91.6
69198;BME280;56311;50.298;8.514;2023-08-06T09:58:00;96610.0;;;18.1;91.5
69198;BME280;56311;50.298;8.514;2023-08-06T10:00:01;96610.0;;;17.8;85.6
69198;BME280;56311;50.298;8.514;2023-08-06T10:02:00;96610.0;;;17.7;87.2
69198;BME280;56311;50.298;8.514;2023-08-06T10:04:01;96610.0;;;17.6;88.3
69198;BME280;56311;50.298;8.514;2023-08-06T10:06:00;96610.0;;;17.8;87.7
69198;BME280;56311;50.298;8.514;2023-08-06T10:08:01;96600.0;;;18.1;86.3
69198;BME280;56311;50.298;8.514;2023-08-06T10:10:00;96600.0;;;18.9;83.3
69198;BME280;56311;50.298;8.514;2023-08-06T10:12:00;96600.0;;;19.2;83.2
69198;BME280;56311;50.298;8.514;2023-08-06T10:14:10;96600.0;;;19.6;83.5
69198;BME280;56311;50.298;8.514;2023-08-06T10:16:00;96600.0;;;19.7;80.0
69198;BME280;56311;50.298;8.514;2023-08-06T10:18:01;96600.0;;;19.4;79.9
69198;BME280;56311;50.298;8.514;2023-08-06T10:20:00;96600.0;;;19.4;81.9
69198;BME280;56311;50.298;8.514;2023-08-06T10:22:08;96600.0;;;19.6;79.2
69198;BME280;56311;50.298;8.514;2023-08-06T10:24:00;96600.0;;;19.9;77.5
69198;BME280;56311;50.298;8.514;2023-08-06T10:26:01;96590.0;;;19.8;77.2
69198;BME280;56311;50.298;8.514;2023-08-06T10:28:07;96600.0;;;20.1;76.4
69198;BME280;56311;50.298;8.514;2023-08-06T10:32:00;96600.0;;;20.3;75.2
69198;BME280;56311;50.298;8.514;2023-08-06T10:34:00;96610.0;;;20.8;73.6
69198;BME280;56311;50.298;8.514;2023-08-06T10:36:01;96610.0;;;21.0;72.4
69198;BME280;56311;50.298;8.514;2023-08-06T10:38:04;96600.0;;;20.5;73.2
69198;BME280;56311;50.298;8.514;2023-08-06T10:40:01;96610.0;;;21.0;73.4
69198;BME280;56311;50.298;8.514;2023-08-06T10:42:01;96600.0;;;21.1;71.0
69198;BME280;56311;50.298;8.514;2023-08-06T10:44:05;96610.0;;;21.0;72.2
69198;BME280;56311;50.298;8.514;2023-08-06T10:46:02;96600.0;;;20.8;73.9
69198;BME280;56311;50.298;8.514;2023-08-06T10:48:00;96600.0;;;20.4;76.2
69198;BME280;56311;50.298;8.514;2023-08-06T10:50:00;96600.0;;;20.2;77.5
69198;BME280;56311;50.298;8.514;2023-08-06T10:52:01;96600.0;;;20.5;76.1
69198;BME280;56311;50.298;8.514;2023-08-06T10:54:00;96610.0;;;21.2;77.5
69198;BME280;56311;50.298;8.514;2023-08-06T10:56:00;96610.0;;;21.1;73.0